Terminal Aerodrome Forecast
Issued by NWS

Home | Current Version | Previous Version | Text Only | Print | Product List | Glossary On
Versions: 1 2 3 4 5 6 7 8 9 10 11 12 13 14
000
FTUS45 KRIW 181735
TAFCPR
TAF
KCPR 181735Z 1818/1918 24015G25KT P6SM FEW110
     FM182000 23023G33KT P6SM FEW120
     FM190100 22018G28KT P6SM SCT120 BKN150
     FM191400 24018G28KT P6SM BKN100
     FM191700 24025G35KT P6SM VCSH BKN050=

USA.gov is the U.S. government's official web portal to all federal, state and local government web resources and services.